Main page
METAR-TAF:

METAR-TAF

Airports :

Windom Municipal Airport

Windom, Minnesota, United States

latitude: 43-54-48N, longitude: 095-06-34W, elevation: 1410 ft

Current weather observation

The report was made 14 minutes ago, at 16:15 UTC
Wind 16 mph from the North/Northwest with gusts up to 25 mph
Temperature 73°F
Humidity 38%
Pressure 30.01 in. Hg
Visibility: 10 miles
Clear sky

METAR: KMWM 281615Z AUTO 34014G22KT 10SM CLR 23/08 A3001 RMK AO2

Time: 11:29 (16:29 UTC)


TAF: missing

Weather observations and forecasts of more than 4000 airports (METAR and TAF reports).

The available stations are represented by yellow and red dots on the map.

Hover mouse over dot to see the name of the station.

Then click to see weather observations and forecasts.

To change the map : click on the green buttons with a black cross to zoom in, on the green button with a dash to zoom out, or on the green arrows for adjacent maps.


METAR-TAF: